sensor_id;sensor_type;location;lat;lon;timestamp;P1;durP1;ratioP1;P2;durP2;ratioP2
63438;SDS011;49567;48.958;8.294;2023-03-23T00:01:16;1999.90;;;999.90;;
63438;SDS011;49567;48.958;8.294;2023-03-23T00:03:44;1999.90;;;999.90;;
63438;SDS011;49567;48.958;8.294;2023-03-23T00:06:11;1999.90;;;999.90;;
63438;SDS011;49567;48.958;8.294;2023-03-23T00:08:42;1999.90;;;999.90;;
63438;SDS011;49567;48.958;8.294;2023-03-23T00:11:15;1999.90;;;999.90;;
63438;SDS011;49567;48.958;8.294;2023-03-23T00:13:42;1999.90;;;999.90;;
63438;SDS011;49567;48.958;8.294;2023-03-23T00:16:08;1999.90;;;999.90;;
63438;SDS011;49567;48.958;8.294;2023-03-23T00:18:47;1999.90;;;999.90;;
63438;SDS011;49567;48.958;8.294;2023-03-23T00:21:17;1999.90;;;999.90;;
63438;SDS011;49567;48.958;8.294;2023-03-23T00:23:43;1999.90;;;999.90;;
63438;SDS011;49567;48.958;8.294;2023-03-23T00:26:09;1999.90;;;999.90;;
63438;SDS011;49567;48.958;8.294;2023-03-23T00:28:35;1999.90;;;999.90;;
63438;SDS011;49567;48.958;8.294;2023-03-23T00:31:04;1999.90;;;999.90;;
63438;SDS011;49567;48.958;8.294;2023-03-23T00:33:32;1999.90;;;999.90;;
63438;SDS011;49567;48.958;8.294;2023-03-23T00:36:03;1999.90;;;999.90;;
63438;SDS011;49567;48.958;8.294;2023-03-23T00:38:29;1999.90;;;999.90;;
63438;SDS011;49567;48.958;8.294;2023-03-23T00:40:55;1999.90;;;999.90;;
63438;SDS011;49567;48.958;8.294;2023-03-23T00:43:22;1999.90;;;999.90;;
63438;SDS011;49567;48.958;8.294;2023-03-23T00:45:49;1999.90;;;999.90;;
63438;SDS011;49567;48.958;8.294;2023-03-23T00:48:18;1999.90;;;999.90;;
63438;SDS011;49567;48.958;8.294;2023-03-23T00:50:44;1999.90;;;999.90;;
63438;SDS011;49567;48.958;8.294;2023-03-23T00:53:09;1999.90;;;999.90;;
63438;SDS011;49567;48.958;8.294;2023-03-23T00:55:34;1999.90;;;999.90;;
63438;SDS011;49567;48.958;8.294;2023-03-23T00:58:00;1999.90;;;999.90;;
63438;SDS011;49567;48.958;8.294;2023-03-23T01:00:26;1999.90;;;999.90;;
63438;SDS011;49567;48.958;8.294;2023-03-23T01:02:52;1999.90;;;999.90;;
63438;SDS011;49567;48.958;8.294;2023-03-23T01:05:18;1999.90;;;999.90;;
63438;SDS011;49567;48.958;8.294;2023-03-23T01:07:43;1999.90;;;999.90;;
63438;SDS011;49567;48.958;8.294;2023-03-23T01:10:09;1999.90;;;999.90;;
63438;SDS011;49567;48.958;8.294;2023-03-23T01:12:37;1999.90;;;999.90;;
63438;SDS011;49567;48.958;8.294;2023-03-23T01:15:03;1999.90;;;999.90;;
63438;SDS011;49567;48.958;8.294;2023-03-23T01:17:29;1999.90;;;999.90;;
63438;SDS011;49567;48.958;8.294;2023-03-23T01:19:54;1999.90;;;999.90;;
63438;SDS011;49567;48.958;8.294;2023-03-23T01:22:21;1999.90;;;999.90;;
63438;SDS011;49567;48.958;8.294;2023-03-23T01:24:46;1999.90;;;999.90;;
63438;SDS011;49567;48.958;8.294;2023-03-23T01:27:11;1999.90;;;999.90;;
63438;SDS011;49567;48.958;8.294;2023-03-23T01:29:37;1999.90;;;999.90;;
63438;SDS011;49567;48.958;8.294;2023-03-23T01:32:02;1999.90;;;999.90;;
63438;SDS011;49567;48.958;8.294;2023-03-23T01:34:28;1999.90;;;999.90;;
63438;SDS011;49567;48.958;8.294;2023-03-23T01:36:53;1999.90;;;999.90;;
63438;SDS011;49567;48.958;8.294;2023-03-23T01:39:18;1999.90;;;999.90;;
63438;SDS011;49567;48.958;8.294;2023-03-23T01:41:44;1999.90;;;999.90;;
63438;SDS011;49567;48.958;8.294;2023-03-23T01:46:41;1999.90;;;999.90;;
63438;SDS011;49567;48.958;8.294;2023-03-23T01:49:15;1999.90;;;999.90;;
63438;SDS011;49567;48.958;8.294;2023-03-23T01:51:53;1999.90;;;999.90;;
63438;SDS011;49567;48.958;8.294;2023-03-23T01:54:21;1999.90;;;999.90;;
63438;SDS011;49567;48.958;8.294;2023-03-23T01:56:55;1999.90;;;999.90;;
63438;SDS011;49567;48.958;8.294;2023-03-23T01:59:24;1999.90;;;999.90;;
63438;SDS011;49567;48.958;8.294;2023-03-23T02:01:52;1999.90;;;999.90;;
63438;SDS011;49567;48.958;8.294;2023-03-23T02:04:18;1999.90;;;999.90;;
63438;SDS011;49567;48.958;8.294;2023-03-23T02:06:46;1999.90;;;999.90;;
63438;SDS011;49567;48.958;8.294;2023-03-23T02:09:12;1999.90;;;999.90;;
63438;SDS011;49567;48.958;8.294;2023-03-23T02:11:44;1999.90;;;999.90;;
63438;SDS011;49567;48.958;8.294;2023-03-23T02:14:10;1999.90;;;999.90;;
63438;SDS011;49567;48.958;8.294;2023-03-23T02:16:44;1999.90;;;999.90;;
63438;SDS011;49567;48.958;8.294;2023-03-23T02:19:31;1999.90;;;999.90;;
63438;SDS011;49567;48.958;8.294;2023-03-23T02:24:57;1999.90;;;999.90;;
63438;SDS011;49567;48.958;8.294;2023-03-23T02:35:37;1999.90;;;999.90;;
63438;SDS011;49567;48.958;8.294;2023-03-23T02:38:08;1999.90;;;999.90;;
63438;SDS011;49567;48.958;8.294;2023-03-23T02:40:39;1999.90;;;999.90;;
63438;SDS011;49567;48.958;8.294;2023-03-23T02:43:14;1999.90;;;999.90;;
63438;SDS011;49567;48.958;8.294;2023-03-23T02:45:44;1999.90;;;999.90;;
63438;SDS011;49567;48.958;8.294;2023-03-23T02:48:10;1999.90;;;999.90;;
63438;SDS011;49567;48.958;8.294;2023-03-23T02:50:38;1999.90;;;999.90;;
63438;SDS011;49567;48.958;8.294;2023-03-23T02:53:07;1999.90;;;999.90;;
63438;SDS011;49567;48.958;8.294;2023-03-23T02:55:36;1999.90;;;999.90;;
63438;SDS011;49567;48.958;8.294;2023-03-23T02:58:06;1999.90;;;999.90;;
63438;SDS011;49567;48.958;8.294;2023-03-23T03:00:35;1999.90;;;999.90;;
63438;SDS011;49567;48.958;8.294;2023-03-23T03:03:01;1999.90;;;999.90;;
63438;SDS011;49567;48.958;8.294;2023-03-23T03:05:35;1999.90;;;999.90;;
63438;SDS011;49567;48.958;8.294;2023-03-23T03:13:32;1999.90;;;999.90;;
63438;SDS011;49567;48.958;8.294;2023-03-23T03:16:32;1999.90;;;999.90;;
63438;SDS011;49567;48.958;8.294;2023-03-23T03:19:09;1999.90;;;999.90;;
63438;SDS011;49567;48.958;8.294;2023-03-23T03:21:40;1999.90;;;999.90;;
63438;SDS011;49567;48.958;8.294;2023-03-23T03:24:08;1999.90;;;999.90;;
63438;SDS011;49567;48.958;8.294;2023-03-23T03:26:36;1999.90;;;999.90;;
63438;SDS011;49567;48.958;8.294;2023-03-23T03:29:04;1999.90;;;999.90;;
63438;SDS011;49567;48.958;8.294;2023-03-23T03:31:32;1999.90;;;999.90;;
63438;SDS011;49567;48.958;8.294;2023-03-23T03:34:02;1999.90;;;999.90;;
63438;SDS011;49567;48.958;8.294;2023-03-23T03:36:28;1999.90;;;999.90;;
63438;SDS011;49567;48.958;8.294;2023-03-23T03:39:01;1999.90;;;999.90;;
63438;SDS011;49567;48.958;8.294;2023-03-23T03:41:30;1999.90;;;999.90;;
63438;SDS011;49567;48.958;8.294;2023-03-23T03:43:55;1999.90;;;999.90;;
63438;SDS011;49567;48.958;8.294;2023-03-23T03:46:20;1999.90;;;999.90;;
63438;SDS011;49567;48.958;8.294;2023-03-23T03:48:46;1999.90;;;999.90;;
63438;SDS011;49567;48.958;8.294;2023-03-23T03:51:11;1999.90;;;999.90;;
63438;SDS011;49567;48.958;8.294;2023-03-23T03:53:36;1999.90;;;999.90;;
63438;SDS011;49567;48.958;8.294;2023-03-23T03:56:02;1999.90;;;999.90;;
63438;SDS011;49567;48.958;8.294;2023-03-23T03:58:27;1999.90;;;999.90;;
63438;SDS011;49567;48.958;8.294;2023-03-23T04:00:57;1999.90;;;999.90;;
63438;SDS011;49567;48.958;8.294;2023-03-23T04:03:23;1999.90;;;999.90;;
63438;SDS011;49567;48.958;8.294;2023-03-23T04:05:48;1999.90;;;999.90;;
63438;SDS011;49567;48.958;8.294;2023-03-23T04:08:14;1999.90;;;999.90;;
63438;SDS011;49567;48.958;8.294;2023-03-23T04:10:39;1922.47;;;999.90;;
63438;SDS011;49567;48.958;8.294;2023-03-23T04:13:04;1933.63;;;999.90;;
63438;SDS011;49567;48.958;8.294;2023-03-23T04:15:29;1682.40;;;999.90;;
63438;SDS011;49567;48.958;8.294;2023-03-23T04:17:55;1568.20;;;999.90;;
63438;SDS011;49567;48.958;8.294;2023-03-23T04:20:21;1116.68;;;971.45;;
63438;SDS011;49567;48.958;8.294;2023-03-23T04:22:47;1236.93;;;999.90;;
63438;SDS011;49567;48.958;8.294;2023-03-23T04:25:17;1019.10;;;908.55;;
63438;SDS011;49567;48.958;8.294;2023-03-23T04:27:45;732.33;;;663.50;;
63438;SDS011;49567;48.958;8.294;2023-03-23T04:30:21;399.63;;;368.75;;
63438;SDS011;49567;48.958;8.294;2023-03-23T04:32:48;215.23;;;198.00;;
63438;SDS011;49567;48.958;8.294;2023-03-23T04:35:20;91.50;;;85.63;;
63438;SDS011;49567;48.958;8.294;2023-03-23T04:37:47;24.20;;;22.90;;
63438;SDS011;49567;48.958;8.294;2023-03-23T04:40:14;27.15;;;25.65;;
63438;SDS011;49567;48.958;8.294;2023-03-23T04:42:43;18.67;;;17.77;;
63438;SDS011;49567;48.958;8.294;2023-03-23T04:45:11;16.08;;;15.07;;
63438;SDS011;49567;48.958;8.294;2023-03-23T04:47:39;10.23;;;9.73;;
63438;SDS011;49567;48.958;8.294;2023-03-23T04:50:10;7.63;;;7.22;;
63438;SDS011;49567;48.958;8.294;2023-03-23T04:52:39;3.92;;;3.72;;
63438;SDS011;49567;48.958;8.294;2023-03-23T04:55:06;4.13;;;3.92;;
63438;SDS011;49567;48.958;8.294;2023-03-23T04:57:32;3.57;;;3.43;;
63438;SDS011;49567;48.958;8.294;2023-03-23T04:59:58;2.87;;;2.53;;
63438;SDS011;49567;48.958;8.294;2023-03-23T05:02:24;1.20;;;1.10;;
63438;SDS011;49567;48.958;8.294;2023-03-23T05:04:50;4.80;;;1.10;;
63438;SDS011;49567;48.958;8.294;2023-03-23T05:07:15;1.30;;;1.15;;
63438;SDS011;49567;48.958;8.294;2023-03-23T05:09:41;1.00;;;0.90;;
63438;SDS011;49567;48.958;8.294;2023-03-23T05:12:06;1.73;;;1.20;;
63438;SDS011;49567;48.958;8.294;2023-03-23T05:14:33;2.35;;;1.38;;
63438;SDS011;49567;48.958;8.294;2023-03-23T05:16:58;3.75;;;1.33;;
63438;SDS011;49567;48.958;8.294;2023-03-23T05:19:24;1.70;;;1.37;;
63438;SDS011;49567;48.958;8.294;2023-03-23T05:21:49;2.70;;;1.50;;
63438;SDS011;49567;48.958;8.294;2023-03-23T05:24:14;2.25;;;1.40;;
63438;SDS011;49567;48.958;8.294;2023-03-23T05:26:39;3.40;;;1.67;;
63438;SDS011;49567;48.958;8.294;2023-03-23T05:29:05;2.83;;;1.30;;
63438;SDS011;49567;48.958;8.294;2023-03-23T05:31:30;2.93;;;1.53;;
63438;SDS011;49567;48.958;8.294;2023-03-23T05:33:55;2.43;;;1.20;;
63438;SDS011;49567;48.958;8.294;2023-03-23T05:36:21;3.33;;;1.25;;
63438;SDS011;49567;48.958;8.294;2023-03-23T05:38:47;2.80;;;1.40;;
63438;SDS011;49567;48.958;8.294;2023-03-23T05:41:14;1.63;;;1.27;;
63438;SDS011;49567;48.958;8.294;2023-03-23T05:43:40;2.50;;;1.20;;
63438;SDS011;49567;48.958;8.294;2023-03-23T05:46:05;1.88;;;1.70;;
63438;SDS011;49567;48.958;8.294;2023-03-23T05:48:31;1.95;;;1.13;;
63438;SDS011;49567;48.958;8.294;2023-03-23T05:50:57;2.08;;;1.40;;
63438;SDS011;49567;48.958;8.294;2023-03-23T05:53:23;1.58;;;1.48;;
63438;SDS011;49567;48.958;8.294;2023-03-23T05:55:48;4.00;;;2.00;;
63438;SDS011;49567;48.958;8.294;2023-03-23T05:58:14;3.00;;;1.40;;
63438;SDS011;49567;48.958;8.294;2023-03-23T06:00:40;1.70;;;1.27;;
63438;SDS011;49567;48.958;8.294;2023-03-23T06:03:06;3.67;;;1.77;;
63438;SDS011;49567;48.958;8.294;2023-03-23T06:05:31;3.43;;;1.87;;
63438;SDS011;49567;48.958;8.294;2023-03-23T06:07:57;2.00;;;1.57;;
63438;SDS011;49567;48.958;8.294;2023-03-23T06:10:23;1.75;;;1.42;;
63438;SDS011;49567;48.958;8.294;2023-03-23T06:12:49;2.03;;;1.10;;
63438;SDS011;49567;48.958;8.294;2023-03-23T06:15:16;3.80;;;1.60;;
63438;SDS011;49567;48.958;8.294;2023-03-23T06:17:41;1.60;;;1.50;;
63438;SDS011;49567;48.958;8.294;2023-03-23T06:20:07;2.65;;;1.25;;
63438;SDS011;49567;48.958;8.294;2023-03-23T06:22:34;1.70;;;1.38;;
63438;SDS011;49567;48.958;8.294;2023-03-23T06:24:59;1.73;;;1.60;;
63438;SDS011;49567;48.958;8.294;2023-03-23T06:27:25;2.87;;;1.60;;
63438;SDS011;49567;48.958;8.294;2023-03-23T06:29:50;2.03;;;1.93;;
63438;SDS011;49567;48.958;8.294;2023-03-23T06:32:15;2.80;;;1.70;;
63438;SDS011;49567;48.958;8.294;2023-03-23T06:34:41;3.33;;;2.00;;
63438;SDS011;49567;48.958;8.294;2023-03-23T06:37:09;2.67;;;1.90;;
63438;SDS011;49567;48.958;8.294;2023-03-23T06:39:35;3.30;;;2.00;;
63438;SDS011;49567;48.958;8.294;2023-03-23T06:42:02;2.85;;;1.75;;
63438;SDS011;49567;48.958;8.294;2023-03-23T06:44:27;4.53;;;1.90;;
63438;SDS011;49567;48.958;8.294;2023-03-23T06:46:53;1.70;;;1.60;;
63438;SDS011;49567;48.958;8.294;2023-03-23T06:49:18;1.63;;;1.53;;
63438;SDS011;49567;48.958;8.294;2023-03-23T06:51:44;1.70;;;1.42;;
63438;SDS011;49567;48.958;8.294;2023-03-23T06:54:09;1.73;;;1.57;;
63438;SDS011;49567;48.958;8.294;2023-03-23T06:56:34;1.27;;;1.23;;
63438;SDS011;49567;48.958;8.294;2023-03-23T06:59:00;2.10;;;1.50;;
63438;SDS011;49567;48.958;8.294;2023-03-23T07:01:25;1.03;;;0.93;;
63438;SDS011;49567;48.958;8.294;2023-03-23T07:03:52;2.28;;;1.35;;
63438;SDS011;49567;48.958;8.294;2023-03-23T07:06:17;3.67;;;1.30;;
63438;SDS011;49567;48.958;8.294;2023-03-23T07:08:42;1.52;;;1.15;;
63438;SDS011;49567;48.958;8.294;2023-03-23T07:11:08;1.60;;;1.50;;
63438;SDS011;49567;48.958;8.294;2023-03-23T07:13:34;1.33;;;1.23;;
63438;SDS011;49567;48.958;8.294;2023-03-23T07:16:00;1.73;;;1.42;;
63438;SDS011;49567;48.958;8.294;2023-03-23T07:18:25;2.27;;;1.50;;
63438;SDS011;49567;48.958;8.294;2023-03-23T07:20:52;2.00;;;1.50;;
63438;SDS011;49567;48.958;8.294;2023-03-23T07:23:18;1.90;;;1.70;;
63438;SDS011;49567;48.958;8.294;2023-03-23T07:25:44;2.25;;;1.50;;
63438;SDS011;49567;48.958;8.294;2023-03-23T07:28:11;1.30;;;1.30;;
63438;SDS011;49567;48.958;8.294;2023-03-23T07:30:37;1.40;;;1.30;;
63438;SDS011;49567;48.958;8.294;2023-03-23T07:33:06;1.13;;;1.13;;
63438;SDS011;49567;48.958;8.294;2023-03-23T07:35:32;2.05;;;1.70;;
63438;SDS011;49567;48.958;8.294;2023-03-23T07:37:57;1.90;;;1.80;;
63438;SDS011;49567;48.958;8.294;2023-03-23T07:40:23;1.40;;;1.00;;
63438;SDS011;49567;48.958;8.294;2023-03-23T07:42:53;1.20;;;1.10;;
63438;SDS011;49567;48.958;8.294;2023-03-23T07:45:20;1.20;;;1.10;;
63438;SDS011;49567;48.958;8.294;2023-03-23T07:47:45;2.20;;;1.35;;
63438;SDS011;49567;48.958;8.294;2023-03-23T07:50:10;1.20;;;1.10;;
63438;SDS011;49567;48.958;8.294;2023-03-23T07:52:37;0.93;;;0.93;;
63438;SDS011;49567;48.958;8.294;2023-03-23T07:55:03;1.27;;;1.17;;
63438;SDS011;49567;48.958;8.294;2023-03-23T07:57:30;1.10;;;1.00;;
63438;SDS011;49567;48.958;8.294;2023-03-23T07:59:55;1.70;;;1.23;;
63438;SDS011;49567;48.958;8.294;2023-03-23T08:02:22;1.30;;;1.20;;
63438;SDS011;49567;48.958;8.294;2023-03-23T08:04:48;2.42;;;0.90;;
63438;SDS011;49567;48.958;8.294;2023-03-23T08:07:13;1.00;;;0.77;;
63438;SDS011;49567;48.958;8.294;2023-03-23T08:09:41;1.10;;;1.10;;
63438;SDS011;49567;48.958;8.294;2023-03-23T08:12:06;0.95;;;0.95;;
63438;SDS011;49567;48.958;8.294;2023-03-23T08:14:31;1.60;;;1.27;;
63438;SDS011;49567;48.958;8.294;2023-03-23T08:16:57;2.50;;;1.10;;
63438;SDS011;49567;48.958;8.294;2023-03-23T08:19:23;1.80;;;1.00;;
63438;SDS011;49567;48.958;8.294;2023-03-23T08:21:49;0.70;;;0.70;;
63438;SDS011;49567;48.958;8.294;2023-03-23T08:24:14;1.60;;;0.90;;
63438;SDS011;49567;48.958;8.294;2023-03-23T08:26:39;4.30;;;0.90;;
63438;SDS011;49567;48.958;8.294;2023-03-23T08:29:05;1.15;;;1.00;;
63438;SDS011;49567;48.958;8.294;2023-03-23T08:31:31;2.40;;;1.05;;
63438;SDS011;49567;48.958;8.294;2023-03-23T08:33:59;1.33;;;0.90;;
63438;SDS011;49567;48.958;8.294;2023-03-23T08:36:25;3.33;;;1.00;;
63438;SDS011;49567;48.958;8.294;2023-03-23T08:38:50;1.58;;;1.00;;
63438;SDS011;49567;48.958;8.294;2023-03-23T08:41:17;1.58;;;0.93;;
63438;SDS011;49567;48.958;8.294;2023-03-23T08:43:42;2.20;;;1.10;;
63438;SDS011;49567;48.958;8.294;2023-03-23T08:46:08;1.13;;;1.10;;
63438;SDS011;49567;48.958;8.294;2023-03-23T08:48:36;3.38;;;1.40;;
63438;SDS011;49567;48.958;8.294;2023-03-23T08:51:03;1.38;;;0.90;;
63438;SDS011;49567;48.958;8.294;2023-03-23T08:53:29;1.10;;;1.00;;
63438;SDS011;49567;48.958;8.294;2023-03-23T08:55:56;1.67;;;1.00;;
63438;SDS011;49567;48.958;8.294;2023-03-23T08:58:27;2.42;;;1.30;;
63438;SDS011;49567;48.958;8.294;2023-03-23T09:00:53;1.55;;;1.15;;
63438;SDS011;49567;48.958;8.294;2023-03-23T09:03:18;1.20;;;1.10;;
63438;SDS011;49567;48.958;8.294;2023-03-23T09:05:44;0.60;;;0.60;;
63438;SDS011;49567;48.958;8.294;2023-03-23T09:08:10;2.40;;;0.90;;
63438;SDS011;49567;48.958;8.294;2023-03-23T09:10:37;1.23;;;0.80;;
63438;SDS011;49567;48.958;8.294;2023-03-23T09:13:03;1.15;;;0.80;;
63438;SDS011;49567;48.958;8.294;2023-03-23T09:15:29;0.68;;;0.68;;
63438;SDS011;49567;48.958;8.294;2023-03-23T09:17:55;2.40;;;1.10;;
63438;SDS011;49567;48.958;8.294;2023-03-23T09:20:24;3.70;;;1.25;;
63438;SDS011;49567;48.958;8.294;2023-03-23T09:22:52;1.95;;;0.80;;
63438;SDS011;49567;48.958;8.294;2023-03-23T09:25:20;1.40;;;0.73;;
63438;SDS011;49567;48.958;8.294;2023-03-23T09:27:54;1.75;;;1.00;;
63438;SDS011;49567;48.958;8.294;2023-03-23T09:30:21;0.70;;;0.70;;
63438;SDS011;49567;48.958;8.294;2023-03-23T09:32:48;0.90;;;0.80;;
63438;SDS011;49567;48.958;8.294;2023-03-23T09:35:13;0.80;;;0.80;;
63438;SDS011;49567;48.958;8.294;2023-03-23T09:37:43;0.90;;;0.90;;
63438;SDS011;49567;48.958;8.294;2023-03-23T09:40:11;0.83;;;0.83;;
63438;SDS011;49567;48.958;8.294;2023-03-23T09:45:15;4.28;;;0.77;;
63438;SDS011;49567;48.958;8.294;2023-03-23T09:47:54;1.60;;;0.77;;
63438;SDS011;49567;48.958;8.294;2023-03-23T09:50:36;1.00;;;0.82;;
63438;SDS011;49567;48.958;8.294;2023-03-23T09:53:13;0.70;;;0.70;;
63438;SDS011;49567;48.958;8.294;2023-03-23T09:55:43;1.00;;;0.75;;
63438;SDS011;49567;48.958;8.294;2023-03-23T09:58:31;1.50;;;0.80;;
63438;SDS011;49567;48.958;8.294;2023-03-23T10:03:39;0.80;;;0.80;;
63438;SDS011;49567;48.958;8.294;2023-03-23T10:06:10;1.15;;;0.73;;
63438;SDS011;49567;48.958;8.294;2023-03-23T10:08:38;1.70;;;0.82;;
63438;SDS011;49567;48.958;8.294;2023-03-23T10:11:23;3.80;;;2.40;;
63438;SDS011;49567;48.958;8.294;2023-03-23T10:16:42;0.93;;;0.93;;
63438;SDS011;49567;48.958;8.294;2023-03-23T10:22:04;0.85;;;0.73;;
63438;SDS011;49567;48.958;8.294;2023-03-23T10:24:40;1.30;;;0.68;;
63438;SDS011;49567;48.958;8.294;2023-03-23T10:27:24;1.00;;;0.90;;
63438;SDS011;49567;48.958;8.294;2023-03-23T10:29:57;0.90;;;0.77;;
63438;SDS011;49567;48.958;8.294;2023-03-23T10:32:39;3.10;;;1.00;;
63438;SDS011;49567;48.958;8.294;2023-03-23T10:35:42;1.00;;;1.00;;
63438;SDS011;49567;48.958;8.294;2023-03-23T10:38:15;1.20;;;0.60;;
63438;SDS011;49567;48.958;8.294;2023-03-23T10:40:48;1.17;;;0.80;;
63438;SDS011;49567;48.958;8.294;2023-03-23T10:43:19;1.13;;;1.02;;
63438;SDS011;49567;48.958;8.294;2023-03-23T10:45:45;1.08;;;1.08;;
63438;SDS011;49567;48.958;8.294;2023-03-23T10:48:21;0.77;;;0.77;;
63438;SDS011;49567;48.958;8.294;2023-03-23T10:50:50;0.93;;;0.70;;
63438;SDS011;49567;48.958;8.294;2023-03-23T10:53:23;0.98;;;0.90;;
63438;SDS011;49567;48.958;8.294;2023-03-23T10:55:55;1.00;;;1.00;;
63438;SDS011;49567;48.958;8.294;2023-03-23T10:58:24;1.63;;;1.52;;
63438;SDS011;49567;48.958;8.294;2023-03-23T11:00:57;3.92;;;1.42;;
63438;SDS011;49567;48.958;8.294;2023-03-23T11:06:18;1.15;;;1.05;;
63438;SDS011;49567;48.958;8.294;2023-03-23T11:11:27;2.33;;;1.10;;
63438;SDS011;49567;48.958;8.294;2023-03-23T11:16:50;1.52;;;0.93;;
63438;SDS011;49567;48.958;8.294;2023-03-23T11:19:22;1.35;;;0.90;;
63438;SDS011;49567;48.958;8.294;2023-03-23T11:21:53;1.10;;;0.80;;
63438;SDS011;49567;48.958;8.294;2023-03-23T11:24:27;0.93;;;0.93;;
63438;SDS011;49567;48.958;8.294;2023-03-23T11:26:53;1.10;;;1.00;;
63438;SDS011;49567;48.958;8.294;2023-03-23T11:29:23;1.20;;;1.10;;
63438;SDS011;49567;48.958;8.294;2023-03-23T11:31:52;1.77;;;1.10;;
63438;SDS011;49567;48.958;8.294;2023-03-23T11:34:31;1.10;;;1.10;;
63438;SDS011;49567;48.958;8.294;2023-03-23T11:37:05;1.30;;;0.82;;
63438;SDS011;49567;48.958;8.294;2023-03-23T11:39:34;1.30;;;0.98;;
63438;SDS011;49567;48.958;8.294;2023-03-23T11:42:13;0.80;;;0.73;;
63438;SDS011;49567;48.958;8.294;2023-03-23T11:44:45;1.48;;;0.90;;
63438;SDS011;49567;48.958;8.294;2023-03-23T11:50:10;0.70;;;0.70;;
63438;SDS011;49567;48.958;8.294;2023-03-23T11:52:48;0.60;;;0.60;;
63438;SDS011;49567;48.958;8.294;2023-03-23T11:57:47;0.90;;;0.70;;
63438;SDS011;49567;48.958;8.294;2023-03-23T12:00:16;1.65;;;0.70;;
63438;SDS011;49567;48.958;8.294;2023-03-23T12:08:27;1.08;;;0.65;;
63438;SDS011;49567;48.958;8.294;2023-03-23T12:13:41;0.80;;;0.70;;
63438;SDS011;49567;48.958;8.294;2023-03-23T12:24:40;0.60;;;0.60;;
63438;SDS011;49567;48.958;8.294;2023-03-23T12:27:25;0.55;;;0.50;;
63438;SDS011;49567;48.958;8.294;2023-03-23T12:38:59;5.03;;;1.10;;
63438;SDS011;49567;48.958;8.294;2023-03-23T12:44:12;1.52;;;0.75;;
63438;SDS011;49567;48.958;8.294;2023-03-23T13:00:03;0.60;;;0.60;;
63438;SDS011;49567;48.958;8.294;2023-03-23T13:02:42;1.48;;;0.80;;
63438;SDS011;49567;48.958;8.294;2023-03-23T13:07:53;0.60;;;0.60;;
63438;SDS011;49567;48.958;8.294;2023-03-23T13:10:26;0.60;;;0.60;;
63438;SDS011;49567;48.958;8.294;2023-03-23T13:12:54;0.68;;;0.68;;
63438;SDS011;49567;48.958;8.294;2023-03-23T13:15:30;0.70;;;0.70;;
63438;SDS011;49567;48.958;8.294;2023-03-23T13:21:07;1.20;;;0.98;;
63438;SDS011;49567;48.958;8.294;2023-03-23T13:23:41;1.05;;;0.77;;
63438;SDS011;49567;48.958;8.294;2023-03-23T13:26:13;7.20;;;2.35;;
63438;SDS011;49567;48.958;8.294;2023-03-23T13:28:48;8.38;;;2.95;;
63438;SDS011;49567;48.958;8.294;2023-03-23T13:31:28;2.47;;;1.75;;
63438;SDS011;49567;48.958;8.294;2023-03-23T13:33:58;1.35;;;0.98;;
63438;SDS011;49567;48.958;8.294;2023-03-23T13:36:28;3.25;;;1.00;;
63438;SDS011;49567;48.958;8.294;2023-03-23T13:38:57;5.03;;;1.33;;
63438;SDS011;49567;48.958;8.294;2023-03-23T13:41:24;1.77;;;1.47;;
63438;SDS011;49567;48.958;8.294;2023-03-23T13:43:51;4.53;;;2.25;;
63438;SDS011;49567;48.958;8.294;2023-03-23T13:46:24;7.85;;;3.30;;
63438;SDS011;49567;48.958;8.294;2023-03-23T13:56:59;1.30;;;1.10;;
63438;SDS011;49567;48.958;8.294;2023-03-23T13:59:29;2.50;;;1.50;;
63438;SDS011;49567;48.958;8.294;2023-03-23T14:02:34;0.80;;;0.80;;
63438;SDS011;49567;48.958;8.294;2023-03-23T14:04:51;2.10;;;1.40;;
63438;SDS011;49567;48.958;8.294;2023-03-23T14:07:16;1.90;;;1.23;;
63438;SDS011;49567;48.958;8.294;2023-03-23T14:09:43;1.02;;;1.02;;
63438;SDS011;49567;48.958;8.294;2023-03-23T14:12:21;1.73;;;1.10;;
63438;SDS011;49567;48.958;8.294;2023-03-23T14:14:55;2.28;;;1.35;;
63438;SDS011;49567;48.958;8.294;2023-03-23T14:17:28;1.05;;;1.00;;
63438;SDS011;49567;48.958;8.294;2023-03-23T14:19:55;1.13;;;1.13;;
63438;SDS011;49567;48.958;8.294;2023-03-23T14:22:34;1.25;;;1.15;;
63438;SDS011;49567;48.958;8.294;2023-03-23T14:27:40;1.48;;;1.05;;
63438;SDS011;49567;48.958;8.294;2023-03-23T14:30:07;1.20;;;1.20;;
63438;SDS011;49567;48.958;8.294;2023-03-23T14:32:37;1.20;;;1.10;;
63438;SDS011;49567;48.958;8.294;2023-03-23T14:35:07;1.45;;;1.35;;
63438;SDS011;49567;48.958;8.294;2023-03-23T14:37:37;2.22;;;1.15;;
63438;SDS011;49567;48.958;8.294;2023-03-23T14:40:03;4.37;;;1.40;;
63438;SDS011;49567;48.958;8.294;2023-03-23T14:42:31;3.65;;;0.93;;
63438;SDS011;49567;48.958;8.294;2023-03-23T14:44:59;2.88;;;0.98;;
63438;SDS011;49567;48.958;8.294;2023-03-23T14:47:27;1.90;;;1.30;;
63438;SDS011;49567;48.958;8.294;2023-03-23T14:49:57;1.20;;;1.10;;
63438;SDS011;49567;48.958;8.294;2023-03-23T14:52:32;2.45;;;1.00;;
63438;SDS011;49567;48.958;8.294;2023-03-23T14:55:12;1.47;;;1.37;;
63438;SDS011;49567;48.958;8.294;2023-03-23T14:57:41;2.40;;;1.00;;
63438;SDS011;49567;48.958;8.294;2023-03-23T15:00:18;4.28;;;1.48;;
63438;SDS011;49567;48.958;8.294;2023-03-23T15:02:48;1.77;;;1.10;;
63438;SDS011;49567;48.958;8.294;2023-03-23T15:05:20;1.38;;;1.10;;
63438;SDS011;49567;48.958;8.294;2023-03-23T15:07:51;1.60;;;1.50;;
63438;SDS011;49567;48.958;8.294;2023-03-23T15:10:20;1.50;;;1.40;;
63438;SDS011;49567;48.958;8.294;2023-03-23T15:12:47;1.98;;;1.10;;
63438;SDS011;49567;48.958;8.294;2023-03-23T15:15:21;1.23;;;1.13;;
63438;SDS011;49567;48.958;8.294;2023-03-23T15:17:50;1.53;;;1.43;;
63438;SDS011;49567;48.958;8.294;2023-03-23T15:20:24;1.57;;;1.30;;
63438;SDS011;49567;48.958;8.294;2023-03-23T15:22:51;1.05;;;0.95;;
63438;SDS011;49567;48.958;8.294;2023-03-23T15:25:19;2.58;;;1.20;;
63438;SDS011;49567;48.958;8.294;2023-03-23T15:27:58;1.27;;;1.15;;
63438;SDS011;49567;48.958;8.294;2023-03-23T15:30:47;3.58;;;1.90;;
63438;SDS011;49567;48.958;8.294;2023-03-23T15:33:15;2.17;;;1.60;;
63438;SDS011;49567;48.958;8.294;2023-03-23T15:35:44;5.33;;;1.67;;
63438;SDS011;49567;48.958;8.294;2023-03-23T15:40:50;2.20;;;2.00;;
63438;SDS011;49567;48.958;8.294;2023-03-23T15:43:25;2.22;;;1.90;;
63438;SDS011;49567;48.958;8.294;2023-03-23T15:48:31;4.80;;;3.08;;
63438;SDS011;49567;48.958;8.294;2023-03-23T15:50:58;5.23;;;3.03;;
63438;SDS011;49567;48.958;8.294;2023-03-23T15:53:28;5.15;;;3.58;;
63438;SDS011;49567;48.958;8.294;2023-03-23T15:56:03;14.02;;;7.07;;
63438;SDS011;49567;48.958;8.294;2023-03-23T15:58:30;7.28;;;5.20;;
63438;SDS011;49567;48.958;8.294;2023-03-23T16:00:57;9.13;;;5.43;;
63438;SDS011;49567;48.958;8.294;2023-03-23T16:03:24;10.83;;;4.03;;
63438;SDS011;49567;48.958;8.294;2023-03-23T16:05:53;8.00;;;2.42;;
63438;SDS011;49567;48.958;8.294;2023-03-23T16:08:20;2.97;;;1.90;;
63438;SDS011;49567;48.958;8.294;2023-03-23T16:10:45;6.13;;;1.80;;
63438;SDS011;49567;48.958;8.294;2023-03-23T16:13:10;1.97;;;1.83;;
63438;SDS011;49567;48.958;8.294;2023-03-23T16:15:36;2.83;;;1.97;;
63438;SDS011;49567;48.958;8.294;2023-03-23T16:18:01;2.07;;;1.33;;
63438;SDS011;49567;48.958;8.294;2023-03-23T16:20:27;1.55;;;1.45;;
63438;SDS011;49567;48.958;8.294;2023-03-23T16:22:54;2.80;;;2.60;;
63438;SDS011;49567;48.958;8.294;2023-03-23T16:25:19;3.83;;;2.67;;